Indian Springs, Nevada Weather observations

Data are for observation ending at time listed.
 Day   Time    Ave.   Ave.  Ave.  Vector   Max.   Stn.    Total    Solar   Ave.  
  of    of     Air    Rel.  Wind   Wind    Wind   Baro.  Precip.   Rad.    Soil  
Year   Day     Temp.  Hum.  Speed  Dir.    Gust   Pres.                    Temp. 
2017   (PST)    F      %     mph   deg.    mph     mb.     in.     W/m2     F   
------------------------------------------------------------------------------
  22    8:10   39.4    84    1.2   340      3.4   902.4    0.01      35    42.1
  22    8:20   39.2    85    0.9   289      2.2   902.4    0.00      48    42.1
  22    8:30   39.0    86    2.0   271      4.5   902.2    0.00      42    42.0
  22    8:40   39.1    86    3.2   207      7.5   902.4    0.00      45    42.0
  22    8:50   39.8    85    2.9   152      8.1   902.8    0.00      52    42.2
  22    9:00   40.3    84    3.6   118      9.7   902.6    0.00      42    42.2
  22    9:10   40.6    82    2.7   153      6.8   902.8    0.00      39    42.2
  22    9:20   40.0    83    3.0   139      8.8   902.6    0.00      34    42.0
  22    9:30   39.9    84    5.5   116     15.1   902.4    0.01      41    42.2
  22    9:40   39.7    86    4.8   113     15.7   902.8    0.00      59    42.4
  22    9:50   39.6    87    5.5   110     14.0   902.8    0.01      50    42.3
  22   10:00   39.4    87    4.9   112     13.7   902.7    0.00      45    42.3
  22   10:10   39.4    86    4.8   113     11.4   902.7    0.00      55    42.3
  22   10:20   39.4    86    3.5   141     10.3   902.6    0.01      87    42.4
  22   10:30   39.4    87    3.1   130      8.0   902.5    0.01     126    42.4
  22   10:40   39.7    87    5.1   111     10.5   902.5    0.00     159    42.3
  22   10:50   40.0    85    6.8   110     15.6   902.2    0.01     144    42.2
  22   11:00   40.5    83    6.2   106     16.1   901.7    0.00     132    42.5
  22   11:10   40.7    82    6.5   108     13.4   901.6    0.00     148    42.4
  22   11:20   40.6    82    4.9   113     14.8   901.6    0.00      86    42.5
  22   11:30   40.2    83    4.6   116     13.7   901.6    0.00      43    42.6
  22   11:40   40.1    83    4.0   112     10.3   901.5    0.00      56    42.5
  22   11:50   40.3    83    2.5   136      6.9   901.3    0.00      60    42.6
  22   12:00   40.3    85    2.3   119      6.9   900.9    0.01      55    42.7
  22   12:10   40.0    86    3.9   111      9.9   901.0    0.00      40    42.8
  22   12:20   39.5    86    5.4   112     15.1   900.8    0.01      57    42.7
  22   12:30   39.3    87    4.5   114     14.3   900.5    0.01     113    42.8
  22   12:40   39.4    88    5.9   111     13.0   899.7    0.00     129    42.7
  22   12:50   39.7    88    6.1   109     14.2   899.3    0.01     181    42.6
  22   13:00   40.2    86    6.4   112     17.2   899.5    0.00     165    42.7
  22   13:10   40.5    85    7.3   110     15.6   899.2    0.00     153    42.9
  22   13:20   40.7    85    9.2   106     18.1   898.9    0.00     177    42.8
  22   13:30   40.8    84    9.5   110     25.1   898.6    0.00     166    42.9
  22   13:40   40.3    86    9.3   107     23.8   898.5    0.00     115    42.9
  22   13:50   40.2    87    8.3   108     20.5   898.5    0.00      76    43.0
  22   14:00   39.9    87   11.1   107     22.9   898.5    0.00      81    43.1
  22   14:10   39.6    89    9.9   109     20.6   898.3    0.00     101    43.2
  22   14:20   39.5    90   11.2   105     21.1   898.8    0.00      72    43.2
  22   14:30   39.5    90   11.2   101     19.2   898.6    0.00      88    43.1
  22   14:40   39.7    89   11.0    98     21.5   898.4    0.00      80    43.3
  22   14:50   39.8    90   10.6   100     19.2   898.3    0.00      74    43.2
  22   15:00   39.8    89    9.2    98     15.5   898.3    0.00      58    43.1
  22   15:10   39.9    89   11.2   101     21.3   897.8    0.00      45    43.1
  22   15:20   40.1    88   10.3   104     18.7   897.5    0.00      38    43.2
  22   15:30   40.0    88    9.1   108     20.4   897.7    0.00      28    43.1
  22   15:40   39.9    88    7.8    98     16.7   898.1    0.00      13    43.2
  22   15:50   40.0    88    8.0    92     14.8   898.0    0.00      15    43.1
  22   16:00   39.9    88   10.6    96     20.0   897.9    0.00      15    43.2
  22   16:10   39.8    89   10.6    94     19.1   897.9    0.00       9    43.0
  22   16:20   39.6    89   10.0    99     19.8   897.8    0.00       6    43.0
  22   16:30   39.6    89   12.1   100     21.2   897.9    0.01       6    43.0
  22   16:40   39.2    90   13.8   104     23.9   897.6    0.00       6    43.0
  22   16:50   39.1    91   11.7   103     21.9   897.8    0.00       4    43.0
  22   17:00   39.2    91    9.7   104     18.9   897.6    0.00       0    43.0
  22   17:10   39.2    90   10.0   101     20.8   897.4    0.00       0    42.8
  22   17:20   39.2    90   11.2    95     17.6   897.1    0.00       0    42.8
  22   17:30   39.4    90    9.9    76     16.9   896.8    0.00       0    42.7
  22   17:40   39.8    90    8.7    85     17.2   896.8    0.00       0    42.7
  22   17:50   40.6    86    7.6    98     14.6   897.3    0.00       0    42.6
  22   18:00   41.0    83    7.8   108     17.3   896.8    0.00       0    42.6
  22   18:10   40.7    85    7.4   111     16.3   896.5    0.00       0    42.6
  22   18:20   40.5    87    6.0   116     18.7   896.5    0.00       0    42.6
  22   18:30   40.5    87    5.8   116     16.1   896.4    0.00       0    42.5
  22   18:40   40.4    88    6.5   112     18.0   896.4    0.00       0    42.6
  22   18:50   40.4    88    7.0   114     20.5   896.1    0.00       0    42.4
  22   19:00   40.4    88    9.1   115     21.8   896.1    0.00       0    42.4
  22   19:10   40.3    89   10.3   107     23.9   895.8    0.00       0    42.3
  22   19:20   40.3    89   11.7   108     24.0   895.3    0.00       0    42.4
  22   19:30   40.3    89   15.1   109     30.9   894.4    0.00       0    42.4
  22   19:40   40.3    89   13.8   107     28.9   893.9    0.00       0    42.4
  22   19:50   40.4    88   13.2   100     31.9   894.0    0.00       0    42.5
  22   20:00   40.4    89   14.3    96     26.4   894.2    0.00       0    42.4
  22   20:10   40.5    88   12.8    98     30.9   894.4    0.00       0    42.4
  22   20:20   40.6    89    9.9   102     26.7   894.9    0.00       0    42.3
  22   20:30   40.4    90    8.9   117     26.3   895.1    0.00       0    42.3
  22   20:40   40.3    91   13.1   101     32.6   894.7    0.00       0    42.3
  22   20:50   40.3    92   14.5   101     28.4   894.3    0.00       0    42.3
  22   21:00   40.2    92   14.1    96     25.0   894.5    0.00       0    42.2
  22   21:10   40.4    92   12.4    98     27.5   894.4    0.00       0    42.3
  22   21:20   40.5    92   12.0    96     24.3   894.2    0.00       0    42.3
  22   21:30   40.5    92   10.1    86     20.4   894.3    0.00       0    42.2
  22   21:40   40.7    92   11.0    87     20.5   894.8    0.00       0    42.2
  22   21:50   40.8    92    8.9    78     22.8   894.8    0.00       0    42.2
  22   22:00   41.1    92    9.1    91     15.9   894.8    0.00       0    42.1
  22   22:10   41.4    91    8.4    99     16.3   894.7    0.00       0    42.1
  22   22:20   41.5    90    6.4    90     13.2   895.2    0.00       0    42.3
  22   22:30   41.2    91    7.2    89     14.2   895.1    0.00       0    42.3
  22   22:40   41.3    91    6.1   102     14.4   895.0    0.00       0    42.3
  22   22:50   41.4    90    6.0   104     15.2   895.2    0.00       0    42.3
  22   23:00   41.6    90    5.0    95     14.5   895.1    0.01       0    42.2
  22   23:10   41.7    90    4.4   104     12.6   895.2    0.00       0    42.3
  22   23:20   41.9    89    3.5    99      9.6   894.8    0.00       0    42.3
  22   23:30   42.1    88    1.9   225      4.2   894.9    0.00       0    42.3
  22   23:40   42.3    87    4.9   114     16.3   894.6    0.00       0    42.3
  22   23:50   42.5    86    8.0    94     16.0   894.4    0.00       0    42.4
  23    0:00   41.9    89    6.3    94     13.7   894.6    0.00       0    42.3
  23    0:10   41.5    91    3.8   122     11.9   894.2    0.00       0    42.3
  23    0:20   41.4    92    5.9   104     13.7   893.9    0.00       0    42.3
  23    0:30   41.5    92    2.9   112      9.9   893.9    0.00       0    42.4
  23    0:40   41.4    92    4.0   101     10.2   893.4    0.00       0    42.4
  23    0:50   41.3    93    4.8   113     15.4   893.2    0.00       0    42.4
  23    1:00   41.4    93    3.2   169      9.3   893.2    0.00       0    42.3
  23    1:10   41.5    93    3.6   119      7.4   893.3    0.00       0    42.4
  23    1:20   41.5    93    6.3    35     14.3   893.0    0.00       0    42.4
  23    1:30   41.6    93    3.8   101      9.2   893.0    0.00       0    42.4
  23    1:40   42.3    90    4.5   202     15.5   892.7    0.00       0    42.3
  23    1:50   44.0    80    6.1   164     14.4   892.4    0.00       0    42.5
  23    2:00   42.6    85    4.0    79     14.8   892.1    0.00       0    42.3
  23    2:10   42.0    89    4.9   119     11.9   892.1    0.00       0    42.4
  23    2:20   41.5    90    4.0   112     11.1   892.2    0.00       0    42.3
  23    2:30   41.6    91    2.2   225      3.9   892.3    0.00       0    42.3
  23    2:40   41.9    90    5.0   247     11.9   892.1    0.00       0    42.3
  23    2:50   43.5    82    2.3    72      8.8   892.0    0.00       0    42.3
  23    3:00   43.3    82    5.2   201     13.0   891.9    0.01       0    42.3
  23    3:10   45.8    72    7.6   238     14.9   892.1    0.00       0    42.3
  23    3:20   46.5    66    7.3   247     16.7   892.1    0.00       0    42.4
  23    3:30   46.0    65    7.4   246     14.0   892.1    0.00       0    42.2
  23    3:40   46.4    62    9.2   238     16.1   892.2    0.00       0    42.2
  23    3:50   46.5    60    9.9   238     17.8   892.3    0.00       0    42.2
  23    4:00   46.4    59   13.6   238     25.4   892.3    0.00       0    42.5
  23    4:10   45.7    63   10.3   242     17.0   892.7    0.00       0    42.1
  23    4:20   45.1    65   10.3   241     16.7   892.8    0.00       0    42.2
  23    4:30   45.7    58   12.0   232     20.2   892.4    0.00       0    42.4
  23    4:40   46.0    54   10.9   225     19.4   892.5    0.00       0    42.3
  23    4:50   45.9    52   11.6   231     21.2   892.2    0.00       0    42.3
  23    5:00   46.4    48   10.1   217     19.9   892.2    0.00       0    42.3
  23    5:10   46.2    47   12.3   220     21.7   892.2    0.00       0    42.3
  23    5:20   45.4    50   10.6   221     22.4   892.1    0.00       0    42.3
  23    5:30   45.3    49   11.2   222     21.3   892.3    0.00       0    42.3
  23    5:40   45.0    48   11.3   220     18.9   892.5    0.00       0    42.2
  23    5:50   44.9    47   11.6   226     21.3   892.6    0.00       0    42.2
  23    6:00   44.8    46   12.2   228     21.4   892.9    0.00       0    42.1
  23    6:10   44.1    49    8.4   226     15.4   893.0    0.00       0    42.1
  23    6:20   44.0    48   11.1   227     19.1   893.1    0.00       0    42.0
  23    6:30   43.4    50   12.6   227     18.1   893.2    0.00       0    41.9
  23    6:40   43.1    50    9.8   220     18.2   893.2    0.00       0    41.9
  23    6:50   43.2    49    7.3   226     14.2   893.4    0.00       1    41.8
  23    7:00   43.4    46   10.6   236     17.2   893.4    0.00       5    41.7
  23    7:10   43.1    46    9.0   228     15.1   893.4    0.00      12    41.7
  23    7:20   43.5    43    9.7   218     18.9   893.3    0.00      14    41.6
  23    7:30   43.9    41   10.5   224     21.5   893.3    0.00      24    41.5
  23    7:40   44.0    41   10.7   226     17.6   893.3    0.00      75    41.5
  23    7:50   44.1    41   10.8   226     22.6   893.3    0.00      67    41.4
  23    8:00   44.2    40   11.6   235     21.0   893.5    0.00     113    41.3

Return to Indian Springs, Nevada graphs page.


Western Regional Climate Center,wrcc@dri.edu